createdAt,value
2023-08-17T00:01:08.801Z,13.30
2023-08-17T00:03:35.389Z,5.90
2023-08-17T00:06:01.938Z,9.13
2023-08-17T00:08:28.312Z,5.57
2023-08-17T00:10:54.710Z,6.32
2023-08-17T00:13:21.081Z,4.88
2023-08-17T00:15:47.492Z,10.68
2023-08-17T00:18:13.904Z,8.32
2023-08-17T00:20:40.259Z,8.52
2023-08-17T00:23:06.633Z,7.03
2023-08-17T00:25:33.061Z,5.95
2023-08-17T00:27:59.685Z,8.30
2023-08-17T00:30:26.035Z,12.05
2023-08-17T00:32:52.458Z,14.20
2023-08-17T00:35:19.616Z,10.32
2023-08-17T00:37:46.017Z,9.65
2023-08-17T00:40:12.815Z,15.73
2023-08-17T00:42:39.253Z,14.75
2023-08-17T00:45:06.201Z,7.55
2023-08-17T00:47:32.905Z,12.50
2023-08-17T00:50:00.345Z,7.50
2023-08-17T00:52:26.948Z,8.85
2023-08-17T00:54:53.488Z,6.13
2023-08-17T00:57:20.924Z,7.35
2023-08-17T00:59:59.443Z,9.77
2023-08-17T01:02:32.018Z,9.85
2023-08-17T01:04:59.090Z,11.45
2023-08-17T01:07:27.093Z,12.90
2023-08-17T01:09:53.992Z,11.18
2023-08-17T01:12:37.321Z,15.65
2023-08-17T01:15:22.087Z,14.18
2023-08-17T01:18:04.256Z,16.80
2023-08-17T01:20:32.130Z,15.43
2023-08-17T01:23:06.131Z,15.88
2023-08-17T01:25:37.222Z,19.33
2023-08-17T01:28:05.341Z,16.95
2023-08-17T01:30:43.179Z,16.58
2023-08-17T01:33:12.191Z,15.80
2023-08-17T01:36:06.427Z,21.73
2023-08-17T01:38:36.730Z,21.75
2023-08-17T01:41:04.907Z,19.27
2023-08-17T01:43:31.864Z,18.75
2023-08-17T01:46:00.096Z,15.90
2023-08-17T01:48:26.547Z,15.93
2023-08-17T01:50:52.961Z,21.25
2023-08-17T01:53:20.749Z,19.38
2023-08-17T01:55:47.146Z,19.15
2023-08-17T01:58:13.552Z,19.73
2023-08-17T02:00:40.192Z,21.23
2023-08-17T02:03:06.636Z,16.40
2023-08-17T02:05:33.295Z,19.08
2023-08-17T02:07:59.675Z,20.55
2023-08-17T02:10:28.553Z,17.88
2023-08-17T02:13:01.833Z,16.20
2023-08-17T02:15:32.338Z,25.25
2023-08-17T02:18:02.099Z,16.08
2023-08-17T02:20:29.112Z,22.13
2023-08-17T02:22:55.530Z,19.02
2023-08-17T02:25:22.918Z,34.30
2023-08-17T02:27:51.281Z,18.17
2023-08-17T02:30:17.674Z,19.83
2023-08-17T02:32:44.070Z,20.98
2023-08-17T02:35:10.793Z,15.70
2023-08-17T02:37:37.223Z,20.75
2023-08-17T02:40:05.355Z,17.58
2023-08-17T02:42:31.720Z,22.23
2023-08-17T02:44:58.117Z,20.35
2023-08-17T02:47:24.777Z,19.27
2023-08-17T02:49:51.597Z,22.02
2023-08-17T02:52:18.020Z,21.67
2023-08-17T02:54:44.426Z,22.40
2023-08-17T02:57:10.942Z,21.08
2023-08-17T02:59:37.371Z,22.77
2023-08-17T03:02:05.312Z,19.95
2023-08-17T03:04:31.687Z,21.83
2023-08-17T03:06:58.105Z,25.73
2023-08-17T03:09:24.470Z,31.15
2023-08-17T03:11:50.856Z,26.77
2023-08-17T03:14:17.400Z,27.13
2023-08-17T03:16:43.835Z,22.13
2023-08-17T03:19:12.219Z,21.52
2023-08-17T03:21:40.885Z,23.27
2023-08-17T03:24:08.385Z,23.10
2023-08-17T03:26:34.834Z,26.88
2023-08-17T03:29:01.500Z,26.10
2023-08-17T03:31:27.855Z,26.92
2023-08-17T03:33:56.593Z,24.50
2023-08-17T03:36:23.548Z,21.30
2023-08-17T03:38:50.969Z,21.27
2023-08-17T03:41:19.597Z,24.50
2023-08-17T03:43:46.499Z,24.67
2023-08-17T03:46:13.998Z,19.50
2023-08-17T03:48:40.379Z,19.55
2023-08-17T03:51:06.873Z,17.77
2023-08-17T03:53:33.252Z,19.13
2023-08-17T03:55:59.795Z,18.33
2023-08-17T03:58:27.829Z,15.85
2023-08-17T04:00:54.499Z,16.92
2023-08-17T04:03:26.690Z,17.77
2023-08-17T04:05:53.136Z,26.55
2023-08-17T04:08:20.927Z,14.55
2023-08-17T04:10:47.400Z,11.75
2023-08-17T04:13:13.756Z,12.07
2023-08-17T04:15:40.106Z,9.73
2023-08-17T04:18:06.631Z,12.70
2023-08-17T04:20:33.068Z,12.90
2023-08-17T04:22:59.446Z,8.15
2023-08-17T04:25:26.419Z,7.60
2023-08-17T04:27:52.837Z,14.00
2023-08-17T04:30:19.655Z,11.32
2023-08-17T04:32:55.135Z,12.63
2023-08-17T04:35:22.113Z,17.73
2023-08-17T04:37:48.579Z,12.85
2023-08-17T04:40:15.612Z,8.68
2023-08-17T04:42:43.141Z,4.93
2023-08-17T04:45:09.968Z,11.15
2023-08-17T04:47:40.774Z,3.28
2023-08-17T04:50:07.738Z,4.53
2023-08-17T04:52:35.157Z,12.57
2023-08-17T04:55:02.742Z,7.78
2023-08-17T04:57:31.554Z,6.07
2023-08-17T04:59:58.860Z,4.05
2023-08-17T05:02:25.476Z,4.05
2023-08-17T05:04:52.753Z,4.75
2023-08-17T05:07:19.407Z,5.10
2023-08-17T05:09:46.605Z,4.82
2023-08-17T05:12:14.314Z,8.57
2023-08-17T05:14:40.682Z,5.40
2023-08-17T05:17:07.049Z,7.57
2023-08-17T05:19:33.453Z,6.38
2023-08-17T05:22:00.006Z,7.75
2023-08-17T05:24:26.706Z,16.85
2023-08-17T05:26:53.115Z,9.00
2023-08-17T05:29:19.498Z,10.07
2023-08-17T05:31:46.517Z,8.05
2023-08-17T05:34:14.124Z,9.88
2023-08-17T05:36:41.999Z,9.35
2023-08-17T05:39:08.737Z,5.55
2023-08-17T05:41:35.234Z,5.03
2023-08-17T05:44:01.737Z,3.40
2023-08-17T05:46:28.146Z,6.55
2023-08-17T05:48:54.588Z,6.78
2023-08-17T05:51:21.042Z,11.15
2023-08-17T05:53:47.393Z,10.55
2023-08-17T05:56:13.793Z,6.63
2023-08-17T05:58:41.962Z,8.55
2023-08-17T06:01:09.758Z,9.60
2023-08-17T06:03:37.115Z,6.07
2023-08-17T06:06:04.171Z,4.55
2023-08-17T06:08:30.963Z,7.90
2023-08-17T06:10:57.335Z,5.47
2023-08-17T06:13:23.823Z,3.45
2023-08-17T06:15:50.526Z,3.60
2023-08-17T06:18:17.124Z,5.32
2023-08-17T06:20:43.762Z,3.47
2023-08-17T06:23:10.160Z,4.78
2023-08-17T06:25:36.547Z,4.68
2023-08-17T06:28:03.652Z,3.63
2023-08-17T06:30:30.045Z,3.00
2023-08-17T06:32:56.475Z,3.40
2023-08-17T06:35:22.966Z,4.93
2023-08-17T06:37:49.417Z,6.68
2023-08-17T06:40:15.761Z,3.95
2023-08-17T06:42:42.128Z,4.35
2023-08-17T06:45:08.830Z,4.35
2023-08-17T06:47:35.302Z,6.40
2023-08-17T06:50:01.697Z,5.72
2023-08-17T06:52:28.124Z,3.55
2023-08-17T06:54:54.549Z,7.63
2023-08-17T06:57:22.654Z,6.15
2023-08-17T06:59:49.136Z,4.25
2023-08-17T07:02:15.597Z,3.45
2023-08-17T07:04:42.013Z,5.10
2023-08-17T07:07:08.462Z,3.22
2023-08-17T07:09:35.384Z,2.95
2023-08-17T07:12:01.731Z,4.75
2023-08-17T07:14:29.187Z,5.68
2023-08-17T07:16:55.556Z,3.20
2023-08-17T07:19:31.433Z,6.13
2023-08-17T07:22:09.675Z,5.97
2023-08-17T07:24:36.146Z,4.07
2023-08-17T07:27:02.538Z,7.13
2023-08-17T07:29:28.911Z,6.38
2023-08-17T07:31:55.476Z,3.72
2023-08-17T07:34:22.021Z,6.60
2023-08-17T07:36:48.366Z,4.30
2023-08-17T07:39:14.745Z,11.85
2023-08-17T07:41:41.124Z,3.30
2023-08-17T07:44:07.541Z,4.75
2023-08-17T07:46:33.897Z,5.60
2023-08-17T07:49:00.326Z,10.35
2023-08-17T07:51:26.686Z,6.97
2023-08-17T07:53:53.045Z,6.40
2023-08-17T07:56:19.539Z,7.40
2023-08-17T07:58:45.938Z,6.28
2023-08-17T08:01:12.441Z,5.65
2023-08-17T08:03:38.859Z,10.85
2023-08-17T08:06:05.240Z,7.35
2023-08-17T08:08:31.626Z,6.43
2023-08-17T08:10:58.059Z,5.80
2023-08-17T08:13:24.473Z,4.70
2023-08-17T08:15:50.894Z,4.65
2023-08-17T08:18:17.469Z,8.70
2023-08-17T08:20:43.921Z,5.88
2023-08-17T08:23:10.313Z,5.18
2023-08-17T08:25:36.680Z,4.32
2023-08-17T08:28:03.244Z,4.72
2023-08-17T08:30:29.644Z,6.00
2023-08-17T08:32:58.939Z,4.97
2023-08-17T08:35:25.472Z,4.32
2023-08-17T08:37:52.407Z,4.93
2023-08-17T08:40:19.088Z,6.00
2023-08-17T08:42:45.695Z,5.88
2023-08-17T08:45:12.196Z,6.90
2023-08-17T08:47:39.146Z,7.95
2023-08-17T08:50:06.339Z,7.47
2023-08-17T08:52:38.871Z,7.00
2023-08-17T08:55:28.182Z,5.88
2023-08-17T08:57:55.832Z,8.52
2023-08-17T09:00:23.326Z,8.07
2023-08-17T09:02:50.555Z,6.20
2023-08-17T09:05:17.481Z,7.45
2023-08-17T09:07:44.527Z,7.57
2023-08-17T09:10:11.599Z,6.63
2023-08-17T09:12:41.117Z,6.90
2023-08-17T09:15:08.877Z,6.20
2023-08-17T09:17:35.705Z,6.78
2023-08-17T09:20:02.289Z,9.38
2023-08-17T09:22:42.739Z,5.93
2023-08-17T09:25:22.682Z,4.50
2023-08-17T09:27:49.164Z,4.78
2023-08-17T09:30:19.531Z,8.48
2023-08-17T09:32:48.576Z,7.70
2023-08-17T09:35:15.017Z,6.78
2023-08-17T09:37:41.411Z,7.57
2023-08-17T09:40:09.385Z,6.20
2023-08-17T09:42:36.446Z,7.32
2023-08-17T09:45:03.484Z,7.10
2023-08-17T09:47:30.424Z,5.93
2023-08-17T09:49:57.014Z,8.18
2023-08-17T09:52:25.259Z,6.78
2023-08-17T09:54:55.486Z,7.00
2023-08-17T09:57:23.295Z,5.78
2023-08-17T09:59:54.791Z,8.65
2023-08-17T10:02:27.470Z,8.15
2023-08-17T10:04:58.509Z,8.25
2023-08-17T10:07:33.296Z,7.45
2023-08-17T10:10:05.349Z,8.48
2023-08-17T10:12:39.020Z,8.55
2023-08-17T10:15:09.237Z,7.85
2023-08-17T10:17:47.295Z,8.87
2023-08-17T10:20:15.317Z,5.60
2023-08-17T10:22:52.743Z,7.65
2023-08-17T10:25:21.126Z,8.70
2023-08-17T10:27:49.869Z,8.02
2023-08-17T10:30:16.390Z,5.57
2023-08-17T10:32:46.425Z,9.27
2023-08-17T10:35:14.719Z,7.93
2023-08-17T10:37:41.760Z,6.35
2023-08-17T10:40:14.664Z,7.07
2023-08-17T10:42:41.720Z,9.00
2023-08-17T10:45:30.382Z,6.57
2023-08-17T10:48:06.651Z,6.45
2023-08-17T10:50:34.068Z,6.35
2023-08-17T10:53:09.429Z,5.80
2023-08-17T10:55:41.143Z,5.53
2023-08-17T11:00:43.212Z,5.50
2023-08-17T11:03:11.467Z,7.40
2023-08-17T11:05:54.660Z,7.30
2023-08-17T11:08:29.388Z,6.60
2023-08-17T11:11:13.708Z,7.40
2023-08-17T11:13:41.908Z,6.60
2023-08-17T11:16:12.767Z,5.35
2023-08-17T11:18:42.381Z,5.15
2023-08-17T11:21:10.322Z,5.80
2023-08-17T11:23:38.431Z,4.45
2023-08-17T11:26:05.951Z,4.70
2023-08-17T11:28:42.547Z,4.18
2023-08-17T11:31:13.983Z,4.50
2023-08-17T11:33:41.136Z,6.10
2023-08-17T11:36:09.588Z,5.68
2023-08-17T11:38:39.045Z,4.95
2023-08-17T11:41:07.504Z,6.10
2023-08-17T11:43:34.395Z,4.85
2023-08-17T11:46:02.117Z,3.42
2023-08-17T11:48:29.434Z,4.40
2023-08-17T11:50:56.293Z,4.35
2023-08-17T11:53:23.026Z,4.10
2023-08-17T11:55:55.599Z,4.40
2023-08-17T11:58:44.021Z,3.95
2023-08-17T12:01:12.673Z,4.55
2023-08-17T12:03:40.898Z,4.03
2023-08-17T12:06:07.877Z,5.22
2023-08-17T12:08:35.025Z,3.30
2023-08-17T12:11:03.037Z,4.63
2023-08-17T12:13:36.229Z,3.20
2023-08-17T12:16:03.322Z,6.57
2023-08-17T12:18:32.699Z,6.05
2023-08-17T12:20:59.137Z,3.42
2023-08-17T12:23:25.586Z,5.88
2023-08-17T12:25:55.981Z,9.52
2023-08-17T12:28:24.085Z,4.03
2023-08-17T12:30:59.266Z,4.28
2023-08-17T12:33:25.678Z,3.35
2023-08-17T12:35:52.108Z,4.78
2023-08-17T12:38:18.517Z,4.82
2023-08-17T12:40:44.963Z,6.22
2023-08-17T12:43:15.298Z,3.15
2023-08-17T12:45:42.332Z,7.45
2023-08-17T12:48:08.749Z,6.05
2023-08-17T12:50:35.269Z,3.35
2023-08-17T12:53:01.646Z,5.03
2023-08-17T12:55:27.998Z,4.57
2023-08-17T12:57:54.418Z,4.22
2023-08-17T13:00:20.774Z,4.38
2023-08-17T13:02:50.202Z,3.17
2023-08-17T13:05:16.805Z,5.45
2023-08-17T13:07:43.473Z,3.17
2023-08-17T13:10:10.000Z,3.53
2023-08-17T13:12:36.454Z,5.32
2023-08-17T13:15:02.941Z,4.72
2023-08-17T13:17:29.383Z,5.18
2023-08-17T13:19:55.780Z,4.90
2023-08-17T13:22:22.139Z,2.45
2023-08-17T13:24:48.644Z,3.15
2023-08-17T13:27:15.034Z,3.47
2023-08-17T13:29:41.420Z,3.60
2023-08-17T13:32:07.918Z,2.53
2023-08-17T13:34:34.275Z,4.00
2023-08-17T13:37:00.677Z,4.47
2023-08-17T13:39:27.573Z,3.72
2023-08-17T13:41:53.934Z,5.35
2023-08-17T13:44:20.300Z,3.97
2023-08-17T13:46:46.676Z,4.60
2023-08-17T13:49:13.024Z,6.28
2023-08-17T13:51:39.402Z,6.55
2023-08-17T13:54:05.787Z,3.80
2023-08-17T13:56:32.270Z,3.65
2023-08-17T13:58:58.624Z,3.67
2023-08-17T14:01:25.520Z,2.85
2023-08-17T14:03:52.275Z,4.38
2023-08-17T14:06:18.796Z,5.45
2023-08-17T14:08:45.305Z,5.00
2023-08-17T14:11:11.789Z,5.47
2023-08-17T14:13:39.053Z,4.05
2023-08-17T14:16:06.015Z,5.07
2023-08-17T14:18:32.545Z,4.70
2023-08-17T14:20:58.928Z,5.38
2023-08-17T14:23:25.334Z,4.80
2023-08-17T14:25:53.083Z,6.20
2023-08-17T14:28:19.936Z,4.93
2023-08-17T14:30:52.632Z,3.00
2023-08-17T14:33:19.456Z,2.53
2023-08-17T14:35:45.981Z,7.63
2023-08-17T14:38:14.278Z,3.67
2023-08-17T14:40:45.453Z,7.20
2023-08-17T14:43:14.766Z,2.58
2023-08-17T14:45:44.703Z,2.60
2023-08-17T14:48:11.203Z,2.50
2023-08-17T14:50:39.050Z,5.05
2023-08-17T14:53:08.539Z,2.65
2023-08-17T14:55:35.654Z,3.42
2023-08-17T14:58:03.691Z,2.83
2023-08-17T15:00:33.493Z,5.25
2023-08-17T15:03:24.414Z,4.03
2023-08-17T15:05:51.918Z,5.28
2023-08-17T15:08:18.541Z,3.22
2023-08-17T15:10:44.975Z,3.75
2023-08-17T15:13:11.689Z,3.15
2023-08-17T15:15:38.317Z,3.03
2023-08-17T15:18:05.046Z,4.85
2023-08-17T15:20:31.851Z,3.92
2023-08-17T15:22:58.462Z,5.57
2023-08-17T15:25:24.805Z,2.67
2023-08-17T15:27:51.184Z,4.45
2023-08-17T15:30:17.805Z,5.43
2023-08-17T15:32:44.290Z,4.35
2023-08-17T15:35:14.794Z,2.53
2023-08-17T15:37:50.284Z,3.95
2023-08-17T15:40:16.730Z,5.50
2023-08-17T15:42:43.108Z,3.13
2023-08-17T15:45:09.773Z,4.88
2023-08-17T15:47:36.173Z,3.22
2023-08-17T15:50:02.666Z,3.13
2023-08-17T15:52:29.020Z,3.22
2023-08-17T15:54:55.446Z,2.50
2023-08-17T15:57:22.304Z,2.33
2023-08-17T15:59:51.086Z,3.15
2023-08-17T16:02:18.362Z,4.35
2023-08-17T16:04:44.749Z,2.00
2023-08-17T16:07:11.221Z,4.32
2023-08-17T16:09:38.617Z,2.20
2023-08-17T16:12:05.409Z,2.75
2023-08-17T16:14:32.069Z,3.08
2023-08-17T16:16:58.445Z,2.50
2023-08-17T16:19:24.978Z,3.05
2023-08-17T16:21:51.629Z,2.20
2023-08-17T16:24:17.973Z,2.40
2023-08-17T16:26:44.329Z,2.35
2023-08-17T16:29:10.667Z,1.70
2023-08-17T16:31:37.234Z,2.05
2023-08-17T16:34:03.933Z,2.75
2023-08-17T16:36:35.875Z,2.33
2023-08-17T16:39:02.671Z,2.58
2023-08-17T16:41:29.029Z,3.03
2023-08-17T16:43:55.869Z,2.30
2023-08-17T16:46:23.120Z,2.72
2023-08-17T16:48:49.516Z,1.92
2023-08-17T16:51:15.895Z,2.38
2023-08-17T16:53:50.306Z,2.42
2023-08-17T16:56:17.458Z,2.55
2023-08-17T16:58:43.856Z,2.55
2023-08-17T17:01:14.970Z,2.83
2023-08-17T17:03:42.919Z,2.25
2023-08-17T17:06:09.621Z,2.33
2023-08-17T17:08:36.009Z,2.78
2023-08-17T17:11:02.437Z,2.47
2023-08-17T17:13:28.841Z,3.25
2023-08-17T17:15:55.362Z,3.75
2023-08-17T17:18:21.842Z,1.90
2023-08-17T17:20:48.338Z,3.10
2023-08-17T17:23:14.869Z,3.97
2023-08-17T17:25:41.409Z,3.80
2023-08-17T17:28:07.909Z,3.38
2023-08-17T17:30:34.395Z,3.17
2023-08-17T17:33:00.959Z,3.47
2023-08-17T17:35:27.330Z,4.85
2023-08-17T17:37:53.778Z,7.70
2023-08-17T17:40:20.181Z,4.82
2023-08-17T17:42:46.566Z,4.07
2023-08-17T17:45:13.009Z,4.22
2023-08-17T17:47:39.538Z,6.40
2023-08-17T17:50:07.776Z,4.10
2023-08-17T17:52:34.724Z,4.00
2023-08-17T17:55:01.284Z,3.92
2023-08-17T17:57:28.067Z,8.90
2023-08-17T17:59:55.473Z,7.82
2023-08-17T18:02:25.733Z,4.25
2023-08-17T18:04:52.850Z,5.55
2023-08-17T18:07:19.599Z,5.07
2023-08-17T18:09:46.020Z,6.53
2023-08-17T18:12:12.520Z,4.88
2023-08-17T18:14:39.315Z,4.97
2023-08-17T18:17:05.978Z,8.13
2023-08-17T18:19:32.374Z,6.47
2023-08-17T18:21:58.922Z,7.72
2023-08-17T18:24:25.338Z,8.93
2023-08-17T18:26:51.800Z,9.50
2023-08-17T18:29:18.454Z,7.32
2023-08-17T18:31:44.980Z,11.32
2023-08-17T18:34:11.908Z,6.22
2023-08-17T18:36:38.426Z,8.20
2023-08-17T18:39:05.201Z,7.32
2023-08-17T18:41:31.721Z,7.55
2023-08-17T18:43:58.223Z,7.43
2023-08-17T18:46:24.755Z,12.63
2023-08-17T18:48:51.447Z,7.75
2023-08-17T18:51:17.892Z,14.18
2023-08-17T18:53:45.410Z,5.10
2023-08-17T18:56:11.788Z,6.78
2023-08-17T18:58:38.188Z,11.80
2023-08-17T19:01:04.541Z,7.47
2023-08-17T19:03:31.424Z,6.47
2023-08-17T19:05:58.151Z,7.07
2023-08-17T19:08:24.570Z,9.38
2023-08-17T19:10:51.021Z,8.43
2023-08-17T19:13:17.429Z,7.53
2023-08-17T19:15:45.899Z,13.98
2023-08-17T19:18:12.410Z,12.18
2023-08-17T19:20:38.959Z,10.82
2023-08-17T19:23:05.426Z,10.50
2023-08-17T19:25:31.960Z,5.82
2023-08-17T19:27:58.466Z,6.18
2023-08-17T19:30:24.983Z,9.65
2023-08-17T19:32:57.331Z,4.80
2023-08-17T19:35:25.891Z,10.45
2023-08-17T19:37:58.357Z,13.35
2023-08-17T19:40:24.812Z,6.75
2023-08-17T19:42:51.394Z,10.35
2023-08-17T19:45:18.296Z,10.88
2023-08-17T19:47:45.571Z,3.85
2023-08-17T19:50:12.072Z,14.60
2023-08-17T19:52:38.505Z,13.52
2023-08-17T19:55:05.800Z,8.07
2023-08-17T19:57:32.489Z,10.70
2023-08-17T19:59:59.005Z,9.57
2023-08-17T20:02:25.761Z,7.13
2023-08-17T20:04:52.214Z,9.82
2023-08-17T20:07:18.674Z,5.68
2023-08-17T20:09:45.079Z,4.18
2023-08-17T20:12:11.830Z,7.72
2023-08-17T20:14:39.615Z,8.13
2023-08-17T20:17:06.039Z,7.35
2023-08-17T20:19:35.454Z,13.23
2023-08-17T20:22:01.899Z,11.55
2023-08-17T20:24:31.488Z,11.32
2023-08-17T20:26:58.022Z,7.38
2023-08-17T20:29:24.405Z,6.50
2023-08-17T20:31:51.166Z,10.70
2023-08-17T20:34:17.589Z,4.85
2023-08-17T20:36:44.020Z,7.72
2023-08-17T20:39:11.551Z,9.13
2023-08-17T20:41:38.462Z,7.38
2023-08-17T20:44:05.135Z,5.78
2023-08-17T20:46:31.734Z,5.65
2023-08-17T20:48:58.281Z,6.60
2023-08-17T20:51:25.651Z,5.93
2023-08-17T20:53:53.352Z,10.50
2023-08-17T20:56:21.084Z,3.58
2023-08-17T20:58:47.616Z,7.72
2023-08-17T21:01:14.169Z,5.28
2023-08-17T21:03:40.608Z,8.02
2023-08-17T21:06:07.381Z,10.32
2023-08-17T21:08:34.621Z,5.55
2023-08-17T21:11:01.820Z,7.07
2023-08-17T21:13:28.370Z,12.30
2023-08-17T21:16:08.391Z,7.57
2023-08-17T21:18:35.691Z,7.10
2023-08-17T21:21:02.798Z,18.60
2023-08-17T21:23:32.210Z,11.65
2023-08-17T21:25:59.917Z,8.82
2023-08-17T21:28:26.527Z,5.50
2023-08-17T21:30:53.096Z,9.52
2023-08-17T21:33:19.512Z,11.32
2023-08-17T21:35:45.925Z,11.85
2023-08-17T21:38:12.437Z,14.88
2023-08-17T21:40:38.817Z,12.07
2023-08-17T21:43:05.312Z,9.75
2023-08-17T21:45:31.714Z,4.05
2023-08-17T21:47:58.456Z,8.10
2023-08-17T21:50:24.951Z,6.43
2023-08-17T21:52:52.122Z,9.35
2023-08-17T21:55:18.654Z,6.32
2023-08-17T21:57:45.490Z,9.05
2023-08-17T22:00:12.385Z,15.57
2023-08-17T22:02:38.887Z,12.55
2023-08-17T22:05:05.686Z,6.35
2023-08-17T22:07:32.639Z,8.43
2023-08-17T22:09:59.165Z,6.70
2023-08-17T22:12:25.627Z,8.70
2023-08-17T22:14:52.577Z,9.80
2023-08-17T22:17:19.009Z,6.63
2023-08-17T22:19:45.350Z,14.52
2023-08-17T22:22:12.725Z,13.50
2023-08-17T22:24:51.028Z,13.32
2023-08-17T22:27:18.663Z,11.48
2023-08-17T22:29:45.085Z,10.48
2023-08-17T22:32:11.541Z,9.65
2023-08-17T22:34:37.957Z,12.82
2023-08-17T22:37:04.396Z,8.98
2023-08-17T22:39:30.952Z,8.25
2023-08-17T22:41:57.374Z,14.70
2023-08-17T22:44:23.800Z,7.78
2023-08-17T22:46:50.257Z,11.43
2023-08-17T22:49:16.688Z,10.60
2023-08-17T22:51:43.050Z,9.05
2023-08-17T22:54:09.983Z,6.57
2023-08-17T22:56:36.382Z,11.82
2023-08-17T22:59:03.208Z,7.30
2023-08-17T23:01:29.725Z,5.82
2023-08-17T23:03:56.204Z,7.57
2023-08-17T23:06:22.656Z,7.53
2023-08-17T23:08:49.110Z,11.25
2023-08-17T23:11:16.386Z,8.43
2023-08-17T23:13:42.937Z,7.75
2023-08-17T23:16:10.367Z,11.70
2023-08-17T23:18:36.776Z,13.75
2023-08-17T23:21:03.535Z,11.20
2023-08-17T23:23:29.951Z,11.05
2023-08-17T23:25:56.473Z,7.40
2023-08-17T23:28:22.932Z,7.70
2023-08-17T23:30:49.375Z,7.80
2023-08-17T23:33:15.914Z,13.95
2023-08-17T23:35:42.555Z,8.20
2023-08-17T23:38:10.530Z,6.97
2023-08-17T23:40:36.972Z,7.70
2023-08-17T23:43:03.487Z,6.70
2023-08-17T23:45:30.006Z,14.18
2023-08-17T23:47:56.443Z,5.20
2023-08-17T23:50:23.021Z,13.73
2023-08-17T23:52:49.502Z,10.65
2023-08-17T23:55:16.197Z,11.63
2023-08-17T23:57:42.761Z,9.02
